createdAt,value
2023-05-19T00:01:37.825Z,9.93
2023-05-19T00:04:05.186Z,9.90
2023-05-19T00:06:32.767Z,9.87
2023-05-19T00:09:09.859Z,9.85
2023-05-19T00:11:39.121Z,9.84
2023-05-19T00:14:09.157Z,9.83
2023-05-19T00:16:37.602Z,9.83
2023-05-19T00:19:09.796Z,9.82
2023-05-19T00:21:38.589Z,9.82
2023-05-19T00:24:06.677Z,9.80
2023-05-19T00:26:33.884Z,9.76
2023-05-19T00:29:00.937Z,9.73
2023-05-19T00:31:28.722Z,9.71
2023-05-19T00:33:55.829Z,9.68
2023-05-19T00:36:24.512Z,9.64
2023-05-19T00:38:51.570Z,9.64
2023-05-19T00:41:18.626Z,9.62
2023-05-19T00:43:45.574Z,9.60
2023-05-19T00:46:12.794Z,9.61
2023-05-19T00:48:39.932Z,9.62
2023-05-19T00:51:07.020Z,9.63
2023-05-19T00:53:35.062Z,9.60
2023-05-19T00:56:03.408Z,9.57
2023-05-19T00:58:32.223Z,9.58
2023-05-19T01:01:04.997Z,9.57
2023-05-19T01:03:35.826Z,9.57
2023-05-19T01:06:04.730Z,9.56
2023-05-19T01:08:36.768Z,9.54
2023-05-19T01:11:05.079Z,9.56
2023-05-19T01:13:33.105Z,9.58
2023-05-19T01:16:23.353Z,9.58
2023-05-19T01:19:16.678Z,9.59
2023-05-19T01:22:22.547Z,9.61
2023-05-19T01:24:54.472Z,9.60
2023-05-19T01:28:19.929Z,9.60
2023-05-19T01:30:52.454Z,9.57
2023-05-19T01:33:22.093Z,9.54
2023-05-19T01:35:50.683Z,9.56
2023-05-19T01:38:20.078Z,9.58
2023-05-19T01:40:49.178Z,9.56
2023-05-19T01:43:23.699Z,9.54
2023-05-19T01:45:51.945Z,9.52
2023-05-19T01:48:19.385Z,9.53
2023-05-19T01:50:46.724Z,9.55
2023-05-19T01:53:13.994Z,9.54
2023-05-19T01:55:49.267Z,9.54
2023-05-19T01:58:40.072Z,9.54
2023-05-19T02:01:32.365Z,9.53
2023-05-19T02:04:31.015Z,9.50
2023-05-19T02:07:03.319Z,9.50
2023-05-19T02:10:03.641Z,9.50
2023-05-19T02:12:40.341Z,9.49
2023-05-19T02:15:07.692Z,9.48
2023-05-19T02:17:38.473Z,9.50
2023-05-19T02:20:06.453Z,9.50
2023-05-19T02:22:33.573Z,9.47
2023-05-19T02:25:00.689Z,9.43
2023-05-19T02:27:27.765Z,9.41
2023-05-19T02:29:54.976Z,9.39
2023-05-19T02:32:22.161Z,9.40
2023-05-19T02:34:49.165Z,9.39
2023-05-19T02:37:18.010Z,9.36
2023-05-19T02:39:44.994Z,9.40
2023-05-19T02:42:14.294Z,9.43
2023-05-19T02:44:41.286Z,9.45
2023-05-19T02:47:08.352Z,9.47
2023-05-19T02:49:35.619Z,9.47
2023-05-19T02:52:03.773Z,9.49
2023-05-19T02:54:31.854Z,9.51
2023-05-19T02:56:59.373Z,9.54
2023-05-19T02:59:26.550Z,9.56
2023-05-19T03:02:01.252Z,9.53
2023-05-19T03:04:29.540Z,9.52
2023-05-19T03:06:59.806Z,9.50
2023-05-19T03:09:26.865Z,9.49
2023-05-19T03:11:53.924Z,9.47
2023-05-19T03:14:23.425Z,9.45
2023-05-19T03:16:51.037Z,9.45
2023-05-19T03:19:18.352Z,9.44
2023-05-19T03:21:46.023Z,9.44
2023-05-19T03:24:13.479Z,9.46
2023-05-19T03:26:41.729Z,9.51
2023-05-19T03:29:08.685Z,9.52
2023-05-19T03:31:35.860Z,9.49
2023-05-19T03:34:03.068Z,9.46
2023-05-19T03:36:38.980Z,9.42
2023-05-19T03:39:06.506Z,9.43
2023-05-19T03:41:33.498Z,9.43
2023-05-19T03:44:01.029Z,9.40
2023-05-19T03:46:28.276Z,9.36
2023-05-19T03:48:55.755Z,9.31
2023-05-19T03:51:22.916Z,9.29
2023-05-19T03:53:49.966Z,9.29
2023-05-19T03:56:17.888Z,9.28
2023-05-19T03:58:46.607Z,9.26
2023-05-19T04:01:13.623Z,9.28
2023-05-19T04:03:41.216Z,9.27
2023-05-19T04:06:08.538Z,9.23
2023-05-19T04:08:35.837Z,9.22
2023-05-19T04:11:02.907Z,9.25
2023-05-19T04:13:32.312Z,9.26
2023-05-19T04:15:59.693Z,9.26
2023-05-19T04:18:28.293Z,9.29
2023-05-19T04:20:56.244Z,9.29
2023-05-19T04:23:23.288Z,9.28
2023-05-19T04:25:50.954Z,9.28
2023-05-19T04:28:18.022Z,9.29
2023-05-19T04:30:46.246Z,9.28
2023-05-19T04:33:13.350Z,9.29
2023-05-19T04:35:40.657Z,9.31
2023-05-19T04:38:09.584Z,9.31
2023-05-19T04:40:36.771Z,9.31
2023-05-19T04:43:03.873Z,9.31
2023-05-19T04:45:32.678Z,9.32
2023-05-19T04:48:00.021Z,9.33
2023-05-19T04:50:29.101Z,9.35
2023-05-19T04:52:58.673Z,9.37
2023-05-19T04:55:25.764Z,9.38
2023-05-19T04:57:52.878Z,9.42
2023-05-19T05:00:21.208Z,9.45
2023-05-19T05:02:49.753Z,9.46
2023-05-19T05:05:17.593Z,9.49
2023-05-19T05:07:45.701Z,9.55
2023-05-19T05:10:13.004Z,9.60
2023-05-19T05:12:41.138Z,9.59
2023-05-19T05:19:15.105Z,9.64
2023-05-19T05:38:04.267Z,9.64
2023-05-19T05:40:32.006Z,9.73
2023-05-19T05:42:59.671Z,9.82
2023-05-19T05:45:26.775Z,9.92
2023-05-19T06:03:53.705Z,9.85
2023-05-19T06:14:32.177Z,9.95
2023-05-19T06:17:50.079Z,9.98
2023-05-19T06:36:48.468Z,9.91
2023-05-19T07:29:20.218Z,10.42
2023-05-19T07:31:47.896Z,10.48
2023-05-19T07:34:15.170Z,10.56
2023-05-19T07:36:42.454Z,10.60
2023-05-19T07:39:10.468Z,10.57
2023-05-19T07:41:38.141Z,10.56
2023-05-19T07:44:07.436Z,10.55
2023-05-19T07:46:35.317Z,10.50
2023-05-19T07:49:05.544Z,10.44
2023-05-19T07:51:32.861Z,10.48
2023-05-19T07:53:59.995Z,10.49
2023-05-19T07:56:27.344Z,10.52
2023-05-19T07:58:55.483Z,10.63
2023-05-19T08:01:22.728Z,10.71
2023-05-19T08:03:50.310Z,10.78
2023-05-19T08:06:20.161Z,10.85
2023-05-19T08:08:48.313Z,10.93
2023-05-19T08:11:15.581Z,10.90
2023-05-19T08:13:48.330Z,10.84
2023-05-19T08:16:18.686Z,10.83
2023-05-19T08:18:46.047Z,10.85
2023-05-19T08:21:13.360Z,10.83
2023-05-19T08:23:40.549Z,10.85
2023-05-19T08:26:09.128Z,10.91
2023-05-19T08:28:36.256Z,10.96
2023-05-19T08:31:03.418Z,10.99
2023-05-19T08:33:30.651Z,10.99
2023-05-19T08:35:57.839Z,10.92
2023-05-19T08:38:26.303Z,10.90
2023-05-19T08:40:53.686Z,10.90
2023-05-19T08:43:21.261Z,10.95
2023-05-19T08:45:48.679Z,10.97
2023-05-19T08:48:18.936Z,10.95
2023-05-19T08:50:57.367Z,10.95
2023-05-19T08:53:34.383Z,10.96
2023-05-19T08:56:11.169Z,11.02
2023-05-19T08:58:45.315Z,11.07
2023-05-19T09:01:16.447Z,11.11
2023-05-19T09:03:45.786Z,11.20
2023-05-19T09:06:13.810Z,11.20
2023-05-19T09:08:42.024Z,11.17
2023-05-19T09:11:10.395Z,11.19
2023-05-19T09:13:38.252Z,11.23
2023-05-19T09:16:06.215Z,11.23
2023-05-19T09:18:33.817Z,11.28
2023-05-19T09:21:04.492Z,11.32
2023-05-19T09:23:36.000Z,11.34
2023-05-19T09:26:07.078Z,11.33
2023-05-19T09:28:36.055Z,11.30
2023-05-19T09:31:08.856Z,11.29
2023-05-19T09:33:39.380Z,11.30
2023-05-19T09:36:08.189Z,11.33
2023-05-19T09:38:36.728Z,11.39
2023-05-19T09:41:05.914Z,11.44
2023-05-19T09:43:34.518Z,11.44
2023-05-19T09:46:06.984Z,11.45
2023-05-19T09:48:35.899Z,11.49
2023-05-19T09:51:10.556Z,11.54
2023-05-19T09:53:38.544Z,11.59
2023-05-19T09:56:08.260Z,11.63
2023-05-19T09:58:36.016Z,11.66
2023-05-19T10:01:04.090Z,11.72
2023-05-19T10:03:34.516Z,11.73
2023-05-19T10:06:03.775Z,11.68
2023-05-19T10:08:31.921Z,11.73
2023-05-19T10:10:59.882Z,11.78
2023-05-19T10:13:28.931Z,11.84
2023-05-19T10:15:59.742Z,11.95
2023-05-19T10:18:29.043Z,12.04
2023-05-19T10:20:57.405Z,12.05
2023-05-19T10:23:25.113Z,12.04
2023-05-19T10:25:57.485Z,12.13
2023-05-19T10:28:30.776Z,12.22
2023-05-19T10:31:01.506Z,12.26
2023-05-19T10:33:55.081Z,12.36
2023-05-19T10:36:37.707Z,12.45
2023-05-19T10:39:12.930Z,12.44
2023-05-19T10:41:49.331Z,12.44
2023-05-19T10:44:32.455Z,12.55
2023-05-19T10:47:00.137Z,12.65
2023-05-19T10:49:28.054Z,12.72
2023-05-19T10:51:58.834Z,12.82
2023-05-19T10:54:48.776Z,12.89
2023-05-19T10:57:18.210Z,12.93
2023-05-19T10:59:46.179Z,12.87
2023-05-19T11:02:44.282Z,12.73
2023-05-19T11:05:16.491Z,12.60
2023-05-19T11:08:07.674Z,12.61
2023-05-19T11:10:46.549Z,12.65
2023-05-19T11:13:22.747Z,12.62
2023-05-19T11:15:52.250Z,12.59
2023-05-19T11:18:23.195Z,12.66
2023-05-19T11:21:02.792Z,12.77
2023-05-19T11:23:38.502Z,12.92
2023-05-19T11:26:10.260Z,13.04
2023-05-19T11:28:38.775Z,12.99
2023-05-19T11:31:13.255Z,12.80
2023-05-19T11:33:42.910Z,12.77
2023-05-19T11:36:16.333Z,12.87
2023-05-19T11:38:45.157Z,13.01
2023-05-19T11:41:16.875Z,13.09
2023-05-19T11:43:47.504Z,13.09
2023-05-19T11:46:14.921Z,13.15
2023-05-19T11:48:42.239Z,13.21
2023-05-19T11:51:12.120Z,13.25
2023-05-19T11:53:39.914Z,13.22
2023-05-19T11:57:17.421Z,13.15
2023-05-19T11:59:56.832Z,13.19
2023-05-19T12:02:47.922Z,13.13
2023-05-19T12:05:35.479Z,13.08
2023-05-19T12:18:11.842Z,13.36
2023-05-19T12:22:57.459Z,13.41
2023-05-19T12:25:29.092Z,13.49
2023-05-19T12:28:34.417Z,13.54
2023-05-19T12:31:36.285Z,13.61
2023-05-19T12:34:42.511Z,13.56
2023-05-19T12:37:22.467Z,13.59
2023-05-19T12:45:43.331Z,13.62
2023-05-19T12:48:59.833Z,13.68
2023-05-19T12:55:11.925Z,13.53
2023-05-19T12:58:18.041Z,13.42
2023-05-19T13:01:24.324Z,13.40
2023-05-19T13:04:20.864Z,13.41
2023-05-19T13:06:56.877Z,13.37
2023-05-19T13:09:23.944Z,13.29
2023-05-19T13:11:51.856Z,13.26
2023-05-19T13:14:19.321Z,13.26
2023-05-19T13:16:47.138Z,13.31
2023-05-19T13:19:28.207Z,13.40
2023-05-19T13:22:33.788Z,13.48
2023-05-19T13:26:36.070Z,13.39
2023-05-19T13:28:23.866Z,13.19
2023-05-19T13:30:51.807Z,13.13
2023-05-19T13:33:18.996Z,13.18
2023-05-19T13:35:56.268Z,13.23
2023-05-19T13:38:23.432Z,13.24
2023-05-19T13:40:50.649Z,13.25
2023-05-19T13:43:37.892Z,13.27
2023-05-19T13:46:06.196Z,13.32
2023-05-19T13:48:40.907Z,13.38
2023-05-19T13:52:03.171Z,13.45
2023-05-19T13:58:29.300Z,13.57
2023-05-19T14:00:02.532Z,13.53
2023-05-19T14:01:17.058Z,13.51
2023-05-19T14:04:10.929Z,13.46
2023-05-19T14:07:02.235Z,13.37
2023-05-19T14:09:30.012Z,13.28
2023-05-19T14:11:57.242Z,13.22
2023-05-19T14:14:24.924Z,13.24
2023-05-19T14:16:52.287Z,13.30
2023-05-19T14:19:21.540Z,13.36
2023-05-19T14:21:50.332Z,13.37
2023-05-19T14:24:17.479Z,13.45
2023-05-19T14:26:44.651Z,13.50
2023-05-19T14:29:12.292Z,13.49
2023-05-19T14:31:39.593Z,13.45
2023-05-19T14:34:06.833Z,13.40
2023-05-19T14:36:34.884Z,13.39
2023-05-19T14:39:02.538Z,13.43
2023-05-19T14:41:29.685Z,13.45
2023-05-19T14:43:56.834Z,13.46
2023-05-19T14:46:23.922Z,13.46
2023-05-19T14:48:51.167Z,13.46
2023-05-19T14:51:18.204Z,13.46
2023-05-19T14:53:45.358Z,13.49
2023-05-19T14:56:12.457Z,13.47
2023-05-19T14:58:40.464Z,13.49
2023-05-19T15:01:08.233Z,13.51
2023-05-19T15:03:35.526Z,13.53
2023-05-19T15:06:03.033Z,13.48
2023-05-19T15:08:30.495Z,13.42
2023-05-19T15:10:57.773Z,13.36
2023-05-19T15:13:26.479Z,13.36
2023-05-19T15:16:08.456Z,13.38
2023-05-19T15:18:42.773Z,13.36
2023-05-19T15:21:10.232Z,13.35
2023-05-19T15:23:37.490Z,13.35
2023-05-19T15:26:05.136Z,13.34
2023-05-19T15:28:33.255Z,13.32
2023-05-19T15:31:00.681Z,13.32
2023-05-19T15:33:28.121Z,13.31
2023-05-19T15:35:56.793Z,13.34
2023-05-19T15:38:23.952Z,13.38
2023-05-19T15:40:51.078Z,13.43
2023-05-19T15:43:19.596Z,13.45
2023-05-19T15:45:47.658Z,13.47
2023-05-19T15:48:14.792Z,13.46
2023-05-19T15:50:42.059Z,13.40
2023-05-19T15:53:10.251Z,13.37
2023-05-19T15:55:37.537Z,13.35
2023-05-19T15:58:04.721Z,13.34
2023-05-19T16:00:32.625Z,13.35
2023-05-19T16:03:00.353Z,13.37
2023-05-19T16:05:27.634Z,13.35
2023-05-19T16:07:54.981Z,13.30
2023-05-19T16:10:22.326Z,13.24
2023-05-19T16:12:49.652Z,13.20
2023-05-19T16:15:16.990Z,13.19
2023-05-19T16:17:44.232Z,13.19
2023-05-19T16:20:11.990Z,13.22
2023-05-19T16:22:39.318Z,13.22
2023-05-19T16:25:07.453Z,13.22
2023-05-19T16:27:34.643Z,13.21
2023-05-19T16:30:02.808Z,13.21
2023-05-19T16:32:30.224Z,13.21
2023-05-19T16:34:57.534Z,13.20
2023-05-19T16:37:24.623Z,13.22
2023-05-19T16:39:51.710Z,13.22
2023-05-19T16:42:18.858Z,13.22
2023-05-19T16:44:46.356Z,13.25
2023-05-19T16:47:13.545Z,13.25
2023-05-19T16:49:40.650Z,13.24
2023-05-19T16:52:07.877Z,13.23
2023-05-19T16:54:35.105Z,13.29
2023-05-19T16:57:02.653Z,13.30
2023-05-19T16:59:29.722Z,13.30
2023-05-19T17:01:56.824Z,13.32
2023-05-19T17:04:24.266Z,13.33
2023-05-19T17:06:51.379Z,13.36
2023-05-19T17:09:24.582Z,13.38
2023-05-19T17:11:55.609Z,13.36
2023-05-19T17:14:44.265Z,13.35
2023-05-19T17:20:52.467Z,13.35
2023-05-19T17:24:35.976Z,13.32
2023-05-19T17:30:47.211Z,13.36
2023-05-19T17:33:28.270Z,13.34
2023-05-19T17:36:08.188Z,13.31
2023-05-19T17:38:39.927Z,13.31
2023-05-19T17:41:13.656Z,13.33
2023-05-19T17:43:41.661Z,13.32
2023-05-19T17:46:29.727Z,13.30
2023-05-19T17:48:56.765Z,13.29
2023-05-19T17:51:23.978Z,13.28
2023-05-19T17:53:51.252Z,13.27
2023-05-19T17:56:22.063Z,13.26
2023-05-19T17:58:49.563Z,13.25
2023-05-19T18:01:17.630Z,13.25
2023-05-19T18:03:48.957Z,13.28
2023-05-19T18:06:17.675Z,13.29
2023-05-19T18:08:51.021Z,13.27
2023-05-19T18:11:21.035Z,13.26
2023-05-19T18:13:48.270Z,13.27
2023-05-19T18:16:15.454Z,13.29
2023-05-19T18:18:44.218Z,13.28
2023-05-19T18:21:13.928Z,13.28
2023-05-19T18:27:27.559Z,13.25
2023-05-19T18:30:07.484Z,13.24
2023-05-19T18:33:31.684Z,13.24
2023-05-19T18:36:36.848Z,13.25
2023-05-19T18:39:57.631Z,13.25
2023-05-19T18:42:41.559Z,13.23
2023-05-19T18:48:30.034Z,13.25
2023-05-19T18:55:00.708Z,13.30
2023-05-19T18:57:27.949Z,13.33
2023-05-19T19:00:47.663Z,13.35
2023-05-19T19:04:07.270Z,13.37
2023-05-19T19:07:16.067Z,13.42
2023-05-19T19:10:20.437Z,13.46
2023-05-19T19:13:16.128Z,13.45
2023-05-19T19:19:30.080Z,13.44
2023-05-19T19:23:15.493Z,13.44
2023-05-19T19:28:54.143Z,13.42
2023-05-19T19:31:56.344Z,13.41
2023-05-19T19:34:23.744Z,13.43
2023-05-19T19:37:05.216Z,13.43
2023-05-19T19:39:32.756Z,13.38
2023-05-19T19:42:02.583Z,13.35
2023-05-19T19:44:29.768Z,13.34
2023-05-19T19:46:56.932Z,13.33
2023-05-19T19:49:26.950Z,13.35
2023-05-19T19:51:57.226Z,13.35
2023-05-19T19:54:24.521Z,13.34
2023-05-19T19:56:58.118Z,13.31
2023-05-19T19:59:30.552Z,13.28
2023-05-19T20:02:32.591Z,13.28
2023-05-19T20:05:04.061Z,13.26
2023-05-19T20:07:42.042Z,13.25
2023-05-19T20:10:50.838Z,13.27
2023-05-19T20:13:39.918Z,13.29
2023-05-19T20:16:27.442Z,13.29
2023-05-19T20:19:09.394Z,13.26
2023-05-19T20:22:00.224Z,13.26
2023-05-19T20:24:55.088Z,13.27
2023-05-19T20:27:49.258Z,13.25
2023-05-19T20:30:23.094Z,13.25
2023-05-19T20:33:28.449Z,13.26
2023-05-19T20:40:09.422Z,13.27
2023-05-19T20:42:27.449Z,13.21
2023-05-19T20:45:14.789Z,13.13
2023-05-19T20:48:06.629Z,13.10
2023-05-19T20:50:50.047Z,13.11
2023-05-19T20:54:47.017Z,13.15
2023-05-19T21:03:26.388Z,13.22
2023-05-19T21:06:00.478Z,13.23
2023-05-19T21:09:19.269Z,13.21
2023-05-19T21:12:15.901Z,13.21
2023-05-19T21:14:43.069Z,13.17
2023-05-19T21:17:10.253Z,13.15
2023-05-19T21:19:39.398Z,13.14
2023-05-19T21:22:06.748Z,13.20
2023-05-19T21:24:34.085Z,13.23
2023-05-19T21:27:01.559Z,13.24
2023-05-19T21:29:28.613Z,13.21
2023-05-19T21:31:56.131Z,13.19
2023-05-19T21:34:23.362Z,13.22
2023-05-19T21:36:50.347Z,13.21
2023-05-19T21:39:17.538Z,13.22
2023-05-19T21:41:44.558Z,13.23
2023-05-19T21:44:11.533Z,13.24
2023-05-19T21:46:39.404Z,13.25
2023-05-19T21:49:08.525Z,13.29
2023-05-19T21:51:36.367Z,13.29
2023-05-19T21:55:30.820Z,13.27
2023-05-19T21:57:23.812Z,13.30
2023-05-19T21:59:50.800Z,13.26
2023-05-19T22:02:17.813Z,13.25
2023-05-19T22:04:45.276Z,13.23
2023-05-19T22:07:12.368Z,13.25
2023-05-19T22:09:39.318Z,13.25
2023-05-19T22:12:06.999Z,13.25
2023-05-19T22:14:34.149Z,13.22
2023-05-19T22:17:01.181Z,13.20
2023-05-19T22:19:28.263Z,13.18
2023-05-19T22:22:01.849Z,13.19
2023-05-19T22:24:33.108Z,13.19
2023-05-19T22:27:00.211Z,13.15
2023-05-19T22:29:27.219Z,13.16
2023-05-19T22:31:54.280Z,13.18
2023-05-19T22:34:21.256Z,13.22
2023-05-19T22:36:48.363Z,13.27
2023-05-19T22:39:15.515Z,13.26
2023-05-19T22:41:42.631Z,13.25
2023-05-19T22:44:11.059Z,13.20
2023-05-19T22:46:38.116Z,13.18
2023-05-19T22:49:05.398Z,13.13
2023-05-19T22:51:33.234Z,13.12
2023-05-19T22:54:00.334Z,13.12
2023-05-19T22:56:27.403Z,13.08
2023-05-19T22:58:54.425Z,13.04
2023-05-19T23:01:21.458Z,13.03
2023-05-19T23:03:48.498Z,13.06
2023-05-19T23:06:15.802Z,13.08
2023-05-19T23:08:44.874Z,13.06
2023-05-19T23:11:12.805Z,13.02
2023-05-19T23:13:39.860Z,13.02
2023-05-19T23:16:07.301Z,13.03
2023-05-19T23:18:34.265Z,13.05
2023-05-19T23:21:01.294Z,13.06
2023-05-19T23:23:29.301Z,13.04
2023-05-19T23:25:56.404Z,13.05
2023-05-19T23:28:23.448Z,13.12
2023-05-19T23:30:52.956Z,13.15
2023-05-19T23:33:20.217Z,13.09
2023-05-19T23:35:48.244Z,13.05
2023-05-19T23:38:15.886Z,13.00
2023-05-19T23:40:43.629Z,12.97
2023-05-19T23:43:10.755Z,12.95
2023-05-19T23:45:37.695Z,12.91
2023-05-19T23:48:05.161Z,12.88
2023-05-19T23:50:32.215Z,12.85
2023-05-19T23:53:00.303Z,12.85
2023-05-19T23:55:27.302Z,12.85
2023-05-19T23:57:54.346Z,12.84
